»·PEaware :: N49LP KTOA-KREI

N49LP :: KTOA-KREI

FLIGHT INFORMATION

Flight Status: Arrived
Operator: Privately registered:
United States
More flights under this callsign
Pilot: Les P. (123)
Aircraft: BEECH AIRCRAFT BONANZA
(BE35)
More flights by this aircraft type
Origin: KTOA Zamperini
United States
Destination: KREI Redlands Mun
United States
More flights between these airports :: More routes between these airports
Route: LIMBO V64 SLI V8 PDZ
File this flight plan on PilotEdge
Remarks: TEC SCTP7
Altitude:
(Current/Filed)
5,000ft
Speed:
(Current/Filed)
165kts
Departed: 18-Dec-19 03:56 PM
Arrived: 18-Dec-19 04:33 PM
Distance/Time
Traveled:
62nm/0:36
Distance/Time
To Go:
Arrived

Flight Plot

Page will automatically refresh every two minutes.


Map Options




Map Legend


Flown Route
Filed Route
Departure Airport
Arrival Airport
Navaid (VOR, NDB)
Fix

Horizontal Profiles

Position Reports

Time Latitude Longitude Heading Altitude Ground
Speed
18-Dec-19 15:28 33.805122 -118.346189 218 106ft 0kts
18-Dec-19 15:29 33.805122 -118.346189 218 106ft 0kts
18-Dec-19 15:30 33.805122 -118.346189 218 106ft 0kts
18-Dec-19 15:31 33.805122 -118.346189 218 106ft 0kts
18-Dec-19 15:32 33.805122 -118.346189 218 106ft 0kts
18-Dec-19 15:33 33.805122 -118.346189 218 106ft 0kts
18-Dec-19 15:34 33.805121 -118.346190 218 106ft 0kts
18-Dec-19 15:35 33.805120 -118.346192 218 106ft 0kts
18-Dec-19 15:36 33.805117 -118.346194 218 106ft 0kts
18-Dec-19 15:37 33.805115 -118.346196 218 106ft 0kts
18-Dec-19 15:38 33.805113 -118.346198 218 106ft 0kts
18-Dec-19 15:39 33.805111 -118.346200 218 106ft 0kts
18-Dec-19 15:40 33.805109 -118.346202 218 106ft 0kts
18-Dec-19 15:41 33.805107 -118.346204 218 106ft 0kts
18-Dec-19 15:42 33.805104 -118.346206 218 106ft 0kts
18-Dec-19 15:43 33.805102 -118.346208 218 106ft 0kts
18-Dec-19 15:44 33.805100 -118.346211 218 106ft 0kts
18-Dec-19 15:45 33.805098 -118.346213 218 106ft 0kts
18-Dec-19 15:46 33.805096 -118.346215 218 106ft 0kts
18-Dec-19 15:47 33.805087 -118.346223 216 106ft 0kts
18-Dec-19 15:48 33.804740 -118.344630 129 106ft 16kts
18-Dec-19 15:49 33.801235 -118.339428 129 106ft 20kts
18-Dec-19 15:50 33.798625 -118.335387 128 106ft 12kts
18-Dec-19 15:51 33.798853 -118.333147 330 106ft 0kts
18-Dec-19 15:52 33.798856 -118.333149 330 106ft 0kts
18-Dec-19 15:53 33.798860 -118.333152 330 106ft 0kts
18-Dec-19 15:54 33.799873 -118.333348 303 106ft 3kts
18-Dec-19 15:55 33.811488 -118.349050 310 601ft 94kts
18-Dec-19 15:56 33.828089 -118.372650 299 1601ft 91kts
18-Dec-19 15:57 33.842734 -118.398770 302 2480ft 97kts
18-Dec-19 15:58 33.859426 -118.429298 303 3000ft 134kts
18-Dec-19 15:59 33.846053 -118.454549 135 3005ft 147kts
18-Dec-19 16:00 33.812198 -118.442369 181 3498ft 137kts
18-Dec-19 16:01 33.776530 -118.447129 186 4273ft 123kts
18-Dec-19 16:02 33.761646 -118.420745 85 4973ft 122kts
18-Dec-19 16:03 33.764269 -118.374091 86 4999ft 149kts
18-Dec-19 16:04 33.767187 -118.325059 86 4998ft 149kts
18-Dec-19 16:05 33.770178 -118.275156 86 5000ft 149kts
18-Dec-19 16:06 33.773170 -118.225332 87 4995ft 149kts
18-Dec-19 16:07 33.776165 -118.175297 87 4998ft 150kts
18-Dec-19 16:08 33.779130 -118.125067 87 4988ft 150kts
18-Dec-19 16:09 33.782081 -118.074857 87 4996ft 150kts
18-Dec-19 16:10 33.790809 -118.026015 74 4991ft 151kts
18-Dec-19 16:11 33.803265 -117.977699 74 4986ft 151kts
18-Dec-19 16:12 33.815750 -117.929442 74 4992ft 150kts
18-Dec-19 16:13 33.828158 -117.881413 74 4986ft 151kts
18-Dec-19 16:14 33.840616 -117.833127 74 4990ft 150kts
18-Dec-19 16:15 33.853013 -117.784989 74 4993ft 150kts
18-Dec-19 16:16 33.865361 -117.736937 74 4992ft 150kts
18-Dec-19 16:17 33.877680 -117.688871 74 4998ft 150kts
18-Dec-19 16:18 33.889939 -117.640653 74 4992ft 150kts
18-Dec-19 16:19 33.902454 -117.592080 74 4993ft 152kts
18-Dec-19 16:20 33.914922 -117.543484 74 4997ft 151kts
18-Dec-19 16:21 33.932803 -117.496966 63 4987ft 154kts
18-Dec-19 16:22 33.952757 -117.451178 63 4984ft 154kts
18-Dec-19 16:23 33.972523 -117.405859 63 4987ft 153kts
18-Dec-19 16:24 33.993004 -117.358808 63 4349ft 156kts
18-Dec-19 16:25 34.012902 -117.313004 63 3608ft 152kts
18-Dec-19 16:26 34.032402 -117.267967 64 2890ft 148kts
18-Dec-19 16:27 34.049976 -117.225394 65 2520ft 136kts
18-Dec-19 16:28 34.065919 -117.184151 89 2547ft 134kts
18-Dec-19 16:29 34.068466 -117.140377 94 2697ft 119kts
18-Dec-19 16:30 34.072691 -117.104086 20 2623ft 124kts
18-Dec-19 16:31 34.085347 -117.127456 270 1996ft 96kts
18-Dec-19 16:32 34.085266 -117.149042 266 1574ft 21kts
18-Dec-19 16:33 34.084894 -117.149864 180 1574ft 0kts
18-Dec-19 16:34 34.084854 -117.146289 89 1574ft 12kts
18-Dec-19 16:35 34.084753 -117.142833 96 1574ft 10kts
18-Dec-19 16:36 34.084748 -117.141151 355 1574ft 1kts
18-Dec-19 16:37 34.084768 -117.141152 358 1574ft 0kts
18-Dec-19 16:38 34.084768 -117.141152 358 1574ft 0kts
18-Dec-19 16:39 34.084768 -117.141152 358 1574ft 0kts

Navigation Log

Ident Type
Flight plan parsing failed, navigation log unavailable